sensor_id;sensor_type;location;lat;lon;timestamp;P1;durP1;ratioP1;P2;durP2;ratioP2
81894;SDS011;71358;45.642;13.758;2024-01-10T00:00:06;6.72;;;5.95;;
81894;SDS011;71358;45.642;13.758;2024-01-10T00:02:51;7.15;;;6.45;;
81894;SDS011;71358;45.642;13.758;2024-01-10T00:05:35;7.35;;;5.72;;
81894;SDS011;71358;45.642;13.758;2024-01-10T00:08:20;6.55;;;5.90;;
81894;SDS011;71358;45.642;13.758;2024-01-10T00:11:05;7.00;;;6.30;;
81894;SDS011;71358;45.642;13.758;2024-01-10T00:13:49;7.22;;;6.53;;
81894;SDS011;71358;45.642;13.758;2024-01-10T00:16:34;7.00;;;6.15;;
81894;SDS011;71358;45.642;13.758;2024-01-10T00:19:19;7.95;;;6.55;;
81894;SDS011;71358;45.642;13.758;2024-01-10T00:22:03;7.82;;;6.38;;
81894;SDS011;71358;45.642;13.758;2024-01-10T00:24:48;6.50;;;5.90;;
81894;SDS011;71358;45.642;13.758;2024-01-10T00:27:33;6.65;;;6.05;;
81894;SDS011;71358;45.642;13.758;2024-01-10T00:30:17;6.70;;;6.03;;
81894;SDS011;71358;45.642;13.758;2024-01-10T00:33:03;7.00;;;6.30;;
81894;SDS011;71358;45.642;13.758;2024-01-10T00:35:47;7.13;;;6.43;;
81894;SDS011;71358;45.642;13.758;2024-01-10T00:38:32;7.22;;;6.43;;
81894;SDS011;71358;45.642;13.758;2024-01-10T00:41:17;7.15;;;6.43;;
81894;SDS011;71358;45.642;13.758;2024-01-10T00:44:01;7.30;;;6.43;;
81894;SDS011;71358;45.642;13.758;2024-01-10T00:46:46;7.43;;;6.63;;
81894;SDS011;71358;45.642;13.758;2024-01-10T00:49:31;6.65;;;6.05;;
81894;SDS011;71358;45.642;13.758;2024-01-10T00:52:15;7.00;;;6.30;;
81894;SDS011;71358;45.642;13.758;2024-01-10T00:55:00;6.57;;;5.97;;
81894;SDS011;71358;45.642;13.758;2024-01-10T00:57:44;6.40;;;5.80;;
81894;SDS011;71358;45.642;13.758;2024-01-10T01:00:29;6.47;;;5.88;;
81894;SDS011;71358;45.642;13.758;2024-01-10T01:03:14;6.45;;;5.85;;
81894;SDS011;71358;45.642;13.758;2024-01-10T01:05:59;7.43;;;6.65;;
81894;SDS011;71358;45.642;13.758;2024-01-10T01:08:43;7.32;;;6.63;;
81894;SDS011;71358;45.642;13.758;2024-01-10T01:11:28;9.25;;;7.38;;
81894;SDS011;71358;45.642;13.758;2024-01-10T01:14:12;7.50;;;6.70;;
81894;SDS011;71358;45.642;13.758;2024-01-10T01:16:57;6.47;;;5.88;;
81894;SDS011;71358;45.642;13.758;2024-01-10T01:19:41;7.57;;;6.72;;
81894;SDS011;71358;45.642;13.758;2024-01-10T01:22:26;8.18;;;6.30;;
81894;SDS011;71358;45.642;13.758;2024-01-10T01:25:11;6.78;;;6.18;;
81894;SDS011;71358;45.642;13.758;2024-01-10T01:27:55;6.85;;;5.70;;
81894;SDS011;71358;45.642;13.758;2024-01-10T01:30:40;6.47;;;5.88;;
81894;SDS011;71358;45.642;13.758;2024-01-10T01:33:24;7.00;;;6.40;;
81894;SDS011;71358;45.642;13.758;2024-01-10T01:36:09;6.97;;;6.28;;
81894;SDS011;71358;45.642;13.758;2024-01-10T01:38:53;6.68;;;5.97;;
81894;SDS011;71358;45.642;13.758;2024-01-10T01:41:38;6.90;;;6.30;;
81894;SDS011;71358;45.642;13.758;2024-01-10T01:44:22;6.90;;;6.20;;
81894;SDS011;71358;45.642;13.758;2024-01-10T01:47:07;7.07;;;6.38;;
81894;SDS011;71358;45.642;13.758;2024-01-10T01:49:52;7.15;;;6.45;;
81894;SDS011;71358;45.642;13.758;2024-01-10T01:52:36;8.85;;;6.43;;
81894;SDS011;71358;45.642;13.758;2024-01-10T01:55:21;7.03;;;6.18;;
81894;SDS011;71358;45.642;13.758;2024-01-10T01:58:08;6.57;;;5.95;;
81894;SDS011;71358;45.642;13.758;2024-01-10T02:00:52;6.28;;;5.68;;
81894;SDS011;71358;45.642;13.758;2024-01-10T02:03:37;6.97;;;6.28;;
81894;SDS011;71358;45.642;13.758;2024-01-10T02:06:22;6.90;;;6.20;;
81894;SDS011;71358;45.642;13.758;2024-01-10T02:09:06;6.55;;;5.97;;
81894;SDS011;71358;45.642;13.758;2024-01-10T02:11:52;6.30;;;5.80;;
81894;SDS011;71358;45.642;13.758;2024-01-10T02:14:37;7.05;;;6.40;;
81894;SDS011;71358;45.642;13.758;2024-01-10T02:17:21;7.10;;;6.40;;
81894;SDS011;71358;45.642;13.758;2024-01-10T02:20:13;6.53;;;5.93;;
81894;SDS011;71358;45.642;13.758;2024-01-10T02:23:00;6.63;;;6.00;;
81894;SDS011;71358;45.642;13.758;2024-01-10T02:25:45;7.03;;;6.43;;
81894;SDS011;71358;45.642;13.758;2024-01-10T02:28:29;7.47;;;6.63;;
81894;SDS011;71358;45.642;13.758;2024-01-10T02:31:14;6.82;;;6.18;;
81894;SDS011;71358;45.642;13.758;2024-01-10T02:33:58;6.72;;;6.13;;
81894;SDS011;71358;45.642;13.758;2024-01-10T02:36:43;6.68;;;6.00;;
81894;SDS011;71358;45.642;13.758;2024-01-10T02:39:27;7.03;;;6.28;;
81894;SDS011;71358;45.642;13.758;2024-01-10T02:42:12;6.30;;;5.70;;
81894;SDS011;71358;45.642;13.758;2024-01-10T02:44:57;7.07;;;6.38;;
81894;SDS011;71358;45.642;13.758;2024-01-10T02:47:41;6.70;;;6.10;;
81894;SDS011;71358;45.642;13.758;2024-01-10T02:50:26;7.55;;;6.85;;
81894;SDS011;71358;45.642;13.758;2024-01-10T02:53:10;6.60;;;6.00;;
81894;SDS011;71358;45.642;13.758;2024-01-10T02:55:55;7.15;;;6.38;;
81894;SDS011;71358;45.642;13.758;2024-01-10T02:58:39;7.28;;;6.68;;
81894;SDS011;71358;45.642;13.758;2024-01-10T03:01:24;6.90;;;6.20;;
81894;SDS011;71358;45.642;13.758;2024-01-10T03:04:08;6.45;;;5.80;;
81894;SDS011;71358;45.642;13.758;2024-01-10T03:06:53;7.38;;;6.47;;
81894;SDS011;71358;45.642;13.758;2024-01-10T03:09:38;7.40;;;6.45;;
81894;SDS011;71358;45.642;13.758;2024-01-10T03:12:22;6.85;;;6.25;;
81894;SDS011;71358;45.642;13.758;2024-01-10T03:15:07;7.28;;;6.55;;
81894;SDS011;71358;45.642;13.758;2024-01-10T03:17:51;6.90;;;6.20;;
81894;SDS011;71358;45.642;13.758;2024-01-10T03:20:36;7.50;;;6.75;;
81894;SDS011;71358;45.642;13.758;2024-01-10T03:23:20;6.85;;;6.15;;
81894;SDS011;71358;45.642;13.758;2024-01-10T03:26:05;6.40;;;5.80;;
81894;SDS011;71358;45.642;13.758;2024-01-10T03:28:50;7.53;;;6.72;;
81894;SDS011;71358;45.642;13.758;2024-01-10T03:31:35;6.47;;;5.88;;
81894;SDS011;71358;45.642;13.758;2024-01-10T03:34:19;7.10;;;6.20;;
81894;SDS011;71358;45.642;13.758;2024-01-10T03:37:04;7.13;;;6.43;;
81894;SDS011;71358;45.642;13.758;2024-01-10T03:39:49;7.30;;;6.60;;
81894;SDS011;71358;45.642;13.758;2024-01-10T03:42:34;7.07;;;6.43;;
81894;SDS011;71358;45.642;13.758;2024-01-10T03:45:20;7.97;;;6.85;;
81894;SDS011;71358;45.642;13.758;2024-01-10T03:48:04;6.88;;;6.25;;
81894;SDS011;71358;45.642;13.758;2024-01-10T03:50:49;7.80;;;7.00;;
81894;SDS011;71358;45.642;13.758;2024-01-10T03:53:34;8.48;;;6.65;;
81894;SDS011;71358;45.642;13.758;2024-01-10T03:56:20;7.55;;;6.75;;
81894;SDS011;71358;45.642;13.758;2024-01-10T03:59:04;7.05;;;6.35;;
81894;SDS011;71358;45.642;13.758;2024-01-10T04:01:49;8.25;;;6.95;;
81894;SDS011;71358;45.642;13.758;2024-01-10T04:04:36;7.20;;;6.50;;
81894;SDS011;71358;45.642;13.758;2024-01-10T04:07:21;7.70;;;6.80;;
81894;SDS011;71358;45.642;13.758;2024-01-10T04:10:06;7.63;;;6.65;;
81894;SDS011;71358;45.642;13.758;2024-01-10T04:12:54;7.30;;;6.60;;
81894;SDS011;71358;45.642;13.758;2024-01-10T04:15:38;7.10;;;6.22;;
81894;SDS011;71358;45.642;13.758;2024-01-10T04:18:23;6.45;;;5.78;;
81894;SDS011;71358;45.642;13.758;2024-01-10T04:21:08;6.88;;;6.15;;
81894;SDS011;71358;45.642;13.758;2024-01-10T04:23:52;8.07;;;6.22;;
81894;SDS011;71358;45.642;13.758;2024-01-10T04:26:37;7.25;;;6.47;;
81894;SDS011;71358;45.642;13.758;2024-01-10T04:29:21;8.00;;;7.20;;
81894;SDS011;71358;45.642;13.758;2024-01-10T04:32:06;7.50;;;6.35;;
81894;SDS011;71358;45.642;13.758;2024-01-10T04:34:51;8.45;;;7.13;;
81894;SDS011;71358;45.642;13.758;2024-01-10T04:37:36;7.72;;;6.75;;
81894;SDS011;71358;45.642;13.758;2024-01-10T04:40:20;7.22;;;6.53;;
81894;SDS011;71358;45.642;13.758;2024-01-10T04:43:05;8.73;;;7.68;;
81894;SDS011;71358;45.642;13.758;2024-01-10T04:45:49;7.13;;;6.43;;
81894;SDS011;71358;45.642;13.758;2024-01-10T04:48:34;7.85;;;6.50;;
81894;SDS011;71358;45.642;13.758;2024-01-10T04:51:20;7.30;;;6.60;;
81894;SDS011;71358;45.642;13.758;2024-01-10T04:54:04;7.63;;;6.60;;
81894;SDS011;71358;45.642;13.758;2024-01-10T04:56:49;7.45;;;6.72;;
81894;SDS011;71358;45.642;13.758;2024-01-10T04:59:33;7.05;;;6.35;;
81894;SDS011;71358;45.642;13.758;2024-01-10T05:02:18;7.60;;;6.85;;
81894;SDS011;71358;45.642;13.758;2024-01-10T05:05:03;7.25;;;6.55;;
81894;SDS011;71358;45.642;13.758;2024-01-10T05:07:47;7.20;;;6.50;;
81894;SDS011;71358;45.642;13.758;2024-01-10T05:10:32;7.50;;;6.70;;
81894;SDS011;71358;45.642;13.758;2024-01-10T05:13:16;7.95;;;6.72;;
81894;SDS011;71358;45.642;13.758;2024-01-10T05:16:01;7.70;;;6.90;;
81894;SDS011;71358;45.642;13.758;2024-01-10T05:18:45;7.65;;;6.88;;
81894;SDS011;71358;45.642;13.758;2024-01-10T05:21:31;7.05;;;6.45;;
81894;SDS011;71358;45.642;13.758;2024-01-10T05:24:16;7.35;;;6.65;;
81894;SDS011;71358;45.642;13.758;2024-01-10T05:27:04;7.13;;;6.47;;
81894;SDS011;71358;45.642;13.758;2024-01-10T05:29:48;7.13;;;5.85;;
81894;SDS011;71358;45.642;13.758;2024-01-10T05:32:33;6.88;;;6.18;;
81894;SDS011;71358;45.642;13.758;2024-01-10T05:35:17;8.10;;;7.25;;
81894;SDS011;71358;45.642;13.758;2024-01-10T05:38:02;7.10;;;6.43;;
81894;SDS011;71358;45.642;13.758;2024-01-10T05:40:47;8.05;;;7.28;;
81894;SDS011;71358;45.642;13.758;2024-01-10T05:43:31;7.20;;;6.50;;
81894;SDS011;71358;45.642;13.758;2024-01-10T05:46:16;7.97;;;6.90;;
81894;SDS011;71358;45.642;13.758;2024-01-10T05:49:00;7.07;;;6.38;;
81894;SDS011;71358;45.642;13.758;2024-01-10T05:51:45;7.28;;;6.57;;
81894;SDS011;71358;45.642;13.758;2024-01-10T05:54:30;8.75;;;6.78;;
81894;SDS011;71358;45.642;13.758;2024-01-10T05:57:14;7.30;;;6.60;;
81894;SDS011;71358;45.642;13.758;2024-01-10T05:59:59;7.90;;;6.57;;
81894;SDS011;71358;45.642;13.758;2024-01-10T06:02:44;6.88;;;6.18;;
81894;SDS011;71358;45.642;13.758;2024-01-10T06:05:29;7.22;;;6.47;;
81894;SDS011;71358;45.642;13.758;2024-01-10T06:08:15;7.88;;;6.57;;
81894;SDS011;71358;45.642;13.758;2024-01-10T06:11:02;7.10;;;6.38;;
81894;SDS011;71358;45.642;13.758;2024-01-10T06:13:52;8.40;;;7.15;;
81894;SDS011;71358;45.642;13.758;2024-01-10T06:16:37;6.88;;;6.18;;
81894;SDS011;71358;45.642;13.758;2024-01-10T06:19:21;7.50;;;6.80;;
81894;SDS011;71358;45.642;13.758;2024-01-10T06:22:05;8.25;;;6.95;;
81894;SDS011;71358;45.642;13.758;2024-01-10T06:24:50;7.82;;;6.72;;
81894;SDS011;71358;45.642;13.758;2024-01-10T06:27:35;7.88;;;7.03;;
81894;SDS011;71358;45.642;13.758;2024-01-10T06:30:20;7.38;;;6.43;;
81894;SDS011;71358;45.642;13.758;2024-01-10T06:33:04;7.32;;;6.60;;
81894;SDS011;71358;45.642;13.758;2024-01-10T06:35:51;7.80;;;6.57;;
81894;SDS011;71358;45.642;13.758;2024-01-10T06:38:35;7.95;;;7.15;;
81894;SDS011;71358;45.642;13.758;2024-01-10T06:41:23;7.35;;;6.60;;
81894;SDS011;71358;45.642;13.758;2024-01-10T06:44:08;7.45;;;6.72;;
81894;SDS011;71358;45.642;13.758;2024-01-10T06:46:52;7.22;;;6.43;;
81894;SDS011;71358;45.642;13.758;2024-01-10T06:49:37;8.15;;;6.75;;
81894;SDS011;71358;45.642;13.758;2024-01-10T06:52:22;7.88;;;7.00;;
81894;SDS011;71358;45.642;13.758;2024-01-10T06:55:07;7.90;;;5.90;;
81894;SDS011;71358;45.642;13.758;2024-01-10T06:57:52;6.95;;;6.25;;
81894;SDS011;71358;45.642;13.758;2024-01-10T07:00:36;7.40;;;6.57;;
81894;SDS011;71358;45.642;13.758;2024-01-10T07:03:22;7.07;;;6.30;;
81894;SDS011;71358;45.642;13.758;2024-01-10T07:06:07;8.15;;;7.35;;
81894;SDS011;71358;45.642;13.758;2024-01-10T07:08:51;7.57;;;6.78;;
81894;SDS011;71358;45.642;13.758;2024-01-10T07:11:36;7.18;;;6.45;;
81894;SDS011;71358;45.642;13.758;2024-01-10T07:14:21;7.57;;;6.82;;
81894;SDS011;71358;45.642;13.758;2024-01-10T07:17:06;6.82;;;6.15;;
81894;SDS011;71358;45.642;13.758;2024-01-10T07:19:50;6.97;;;6.30;;
81894;SDS011;71358;45.642;13.758;2024-01-10T07:22:35;7.88;;;7.07;;
81894;SDS011;71358;45.642;13.758;2024-01-10T07:25:19;7.80;;;6.57;;
81894;SDS011;71358;45.642;13.758;2024-01-10T07:28:06;8.65;;;7.47;;
81894;SDS011;71358;45.642;13.758;2024-01-10T07:30:50;7.35;;;6.50;;
81894;SDS011;71358;45.642;13.758;2024-01-10T07:33:35;8.10;;;6.80;;
81894;SDS011;71358;45.642;13.758;2024-01-10T07:36:19;7.75;;;7.05;;
81894;SDS011;71358;45.642;13.758;2024-01-10T07:39:04;7.03;;;6.30;;
81894;SDS011;71358;45.642;13.758;2024-01-10T07:41:48;7.45;;;6.65;;
81894;SDS011;71358;45.642;13.758;2024-01-10T07:44:34;8.65;;;7.20;;
81894;SDS011;71358;45.642;13.758;2024-01-10T07:47:19;7.63;;;6.82;;
81894;SDS011;71358;45.642;13.758;2024-01-10T07:50:07;7.00;;;6.30;;
81894;SDS011;71358;45.642;13.758;2024-01-10T07:52:53;7.45;;;6.75;;
81894;SDS011;71358;45.642;13.758;2024-01-10T07:55:38;7.93;;;6.47;;
81894;SDS011;71358;45.642;13.758;2024-01-10T07:58:22;7.05;;;6.28;;
81894;SDS011;71358;45.642;13.758;2024-01-10T08:01:07;7.72;;;6.93;;
81894;SDS011;71358;45.642;13.758;2024-01-10T08:03:54;8.43;;;6.70;;
81894;SDS011;71358;45.642;13.758;2024-01-10T08:06:39;7.18;;;6.47;;
81894;SDS011;71358;45.642;13.758;2024-01-10T08:09:23;7.97;;;6.72;;
81894;SDS011;71358;45.642;13.758;2024-01-10T08:12:08;8.00;;;6.93;;
81894;SDS011;71358;45.642;13.758;2024-01-10T08:14:53;7.65;;;6.93;;
81894;SDS011;71358;45.642;13.758;2024-01-10T08:17:37;7.32;;;6.57;;
81894;SDS011;71358;45.642;13.758;2024-01-10T08:20:22;8.35;;;6.78;;
81894;SDS011;71358;45.642;13.758;2024-01-10T08:23:06;7.47;;;6.65;;
81894;SDS011;71358;45.642;13.758;2024-01-10T08:25:51;8.43;;;6.90;;
81894;SDS011;71358;45.642;13.758;2024-01-10T08:28:36;8.65;;;7.30;;
81894;SDS011;71358;45.642;13.758;2024-01-10T08:31:21;8.00;;;7.20;;
81894;SDS011;71358;45.642;13.758;2024-01-10T08:34:06;7.60;;;6.90;;
81894;SDS011;71358;45.642;13.758;2024-01-10T08:36:51;8.27;;;7.25;;
81894;SDS011;71358;45.642;13.758;2024-01-10T08:39:35;8.98;;;7.28;;
81894;SDS011;71358;45.642;13.758;2024-01-10T08:42:20;7.70;;;6.90;;
81894;SDS011;71358;45.642;13.758;2024-01-10T08:45:05;11.57;;;9.45;;
81894;SDS011;71358;45.642;13.758;2024-01-10T08:47:49;10.05;;;9.05;;
81894;SDS011;71358;45.642;13.758;2024-01-10T08:50:34;10.00;;;9.10;;
81894;SDS011;71358;45.642;13.758;2024-01-10T08:53:18;10.77;;;9.68;;
81894;SDS011;71358;45.642;13.758;2024-01-10T08:56:03;8.38;;;7.43;;
81894;SDS011;71358;45.642;13.758;2024-01-10T08:58:48;8.27;;;7.47;;
81894;SDS011;71358;45.642;13.758;2024-01-10T09:01:33;9.00;;;7.70;;
81894;SDS011;71358;45.642;13.758;2024-01-10T09:04:17;8.50;;;7.70;;
81894;SDS011;71358;45.642;13.758;2024-01-10T09:07:03;8.65;;;7.63;;
81894;SDS011;71358;45.642;13.758;2024-01-10T09:09:48;9.07;;;7.32;;
81894;SDS011;71358;45.642;13.758;2024-01-10T09:12:32;8.25;;;7.45;;
81894;SDS011;71358;45.642;13.758;2024-01-10T09:15:17;8.20;;;6.63;;
81894;SDS011;71358;45.642;13.758;2024-01-10T09:18:01;8.05;;;7.18;;
81894;SDS011;71358;45.642;13.758;2024-01-10T09:20:46;11.98;;;7.43;;
81894;SDS011;71358;45.642;13.758;2024-01-10T09:23:32;8.05;;;7.22;;
81894;SDS011;71358;45.642;13.758;2024-01-10T09:26:17;13.45;;;7.55;;
81894;SDS011;71358;45.642;13.758;2024-01-10T09:29:02;8.57;;;7.15;;
81894;SDS011;71358;45.642;13.758;2024-01-10T09:31:47;8.82;;;7.40;;
81894;SDS011;71358;45.642;13.758;2024-01-10T09:34:31;8.98;;;7.25;;
81894;SDS011;71358;45.642;13.758;2024-01-10T09:37:16;7.35;;;6.47;;
81894;SDS011;71358;45.642;13.758;2024-01-10T09:40:00;7.25;;;6.28;;
81894;SDS011;71358;45.642;13.758;2024-01-10T09:42:45;8.77;;;7.10;;
81894;SDS011;71358;45.642;13.758;2024-01-10T09:45:35;8.77;;;6.95;;
81894;SDS011;71358;45.642;13.758;2024-01-10T09:48:25;9.23;;;6.95;;
81894;SDS011;71358;45.642;13.758;2024-01-10T09:51:10;8.05;;;6.65;;
81894;SDS011;71358;45.642;13.758;2024-01-10T09:53:56;7.90;;;7.07;;
81894;SDS011;71358;45.642;13.758;2024-01-10T09:56:42;7.55;;;6.80;;
81894;SDS011;71358;45.642;13.758;2024-01-10T09:59:26;9.07;;;7.80;;
81894;SDS011;71358;45.642;13.758;2024-01-10T10:02:11;9.00;;;7.75;;
81894;SDS011;71358;45.642;13.758;2024-01-10T10:05:00;8.38;;;7.55;;
81894;SDS011;71358;45.642;13.758;2024-01-10T10:07:48;7.85;;;7.05;;
81894;SDS011;71358;45.642;13.758;2024-01-10T10:10:34;7.22;;;6.53;;
81894;SDS011;71358;45.642;13.758;2024-01-10T10:13:25;10.32;;;6.85;;
81894;SDS011;71358;45.642;13.758;2024-01-10T10:16:11;7.35;;;6.05;;
81894;SDS011;71358;45.642;13.758;2024-01-10T10:18:58;8.50;;;6.85;;
81894;SDS011;71358;45.642;13.758;2024-01-10T10:21:43;13.63;;;7.32;;
81894;SDS011;71358;45.642;13.758;2024-01-10T10:24:27;8.10;;;6.55;;
81894;SDS011;71358;45.642;13.758;2024-01-10T10:27:12;14.40;;;7.90;;
81894;SDS011;71358;45.642;13.758;2024-01-10T10:29:57;11.60;;;6.95;;
81894;SDS011;71358;45.642;13.758;2024-01-10T10:32:41;14.05;;;7.70;;
81894;SDS011;71358;45.642;13.758;2024-01-10T10:35:26;13.10;;;7.82;;
81894;SDS011;71358;45.642;13.758;2024-01-10T10:38:10;11.93;;;7.50;;
81894;SDS011;71358;45.642;13.758;2024-01-10T10:40:55;9.38;;;7.05;;
81894;SDS011;71358;45.642;13.758;2024-01-10T10:43:41;9.48;;;7.00;;
81894;SDS011;71358;45.642;13.758;2024-01-10T10:46:26;9.95;;;7.20;;
81894;SDS011;71358;45.642;13.758;2024-01-10T10:49:11;7.72;;;6.22;;
81894;SDS011;71358;45.642;13.758;2024-01-10T10:51:57;12.95;;;7.15;;
81894;SDS011;71358;45.642;13.758;2024-01-10T10:54:43;9.73;;;6.35;;
81894;SDS011;71358;45.642;13.758;2024-01-10T10:57:30;10.65;;;6.22;;
81894;SDS011;71358;45.642;13.758;2024-01-10T11:00:18;10.02;;;7.32;;
81894;SDS011;71358;45.642;13.758;2024-01-10T11:03:04;7.40;;;6.40;;
81894;SDS011;71358;45.642;13.758;2024-01-10T11:05:48;8.65;;;6.80;;
81894;SDS011;71358;45.642;13.758;2024-01-10T11:08:35;8.60;;;6.47;;
81894;SDS011;71358;45.642;13.758;2024-01-10T11:11:43;11.15;;;7.10;;
81894;SDS011;71358;45.642;13.758;2024-01-10T11:17:46;7.88;;;6.60;;
81894;SDS011;71358;45.642;13.758;2024-01-10T11:21:06;9.00;;;7.00;;
81894;SDS011;71358;45.642;13.758;2024-01-10T11:24:14;8.93;;;6.55;;
81894;SDS011;71358;45.642;13.758;2024-01-10T11:27:06;7.50;;;6.40;;
81894;SDS011;71358;45.642;13.758;2024-01-10T11:29:58;7.05;;;6.28;;
81894;SDS011;71358;45.642;13.758;2024-01-10T11:32:44;7.45;;;6.50;;
81894;SDS011;71358;45.642;13.758;2024-01-10T11:35:29;7.65;;;6.75;;
81894;SDS011;71358;45.642;13.758;2024-01-10T11:38:16;7.75;;;6.85;;
81894;SDS011;71358;45.642;13.758;2024-01-10T11:41:00;7.10;;;5.63;;
81894;SDS011;71358;45.642;13.758;2024-01-10T11:43:45;7.30;;;6.38;;
81894;SDS011;71358;45.642;13.758;2024-01-10T11:46:30;7.18;;;6.45;;
81894;SDS011;71358;45.642;13.758;2024-01-10T11:49:16;7.10;;;5.82;;
81894;SDS011;71358;45.642;13.758;2024-01-10T11:52:01;7.78;;;6.70;;
81894;SDS011;71358;45.642;13.758;2024-01-10T11:54:47;7.53;;;6.40;;
81894;SDS011;71358;45.642;13.758;2024-01-10T11:57:32;8.18;;;6.55;;
81894;SDS011;71358;45.642;13.758;2024-01-10T12:00:16;6.97;;;6.28;;
81894;SDS011;71358;45.642;13.758;2024-01-10T12:03:03;8.00;;;6.53;;
81894;SDS011;71358;45.642;13.758;2024-01-10T12:05:48;8.60;;;6.30;;
81894;SDS011;71358;45.642;13.758;2024-01-10T12:08:36;7.28;;;5.95;;
81894;SDS011;71358;45.642;13.758;2024-01-10T12:11:20;6.43;;;5.78;;
81894;SDS011;71358;45.642;13.758;2024-01-10T12:14:05;7.97;;;6.28;;
81894;SDS011;71358;45.642;13.758;2024-01-10T12:16:51;13.70;;;11.50;;
81894;SDS011;71358;45.642;13.758;2024-01-10T12:19:36;19.27;;;17.27;;
81894;SDS011;71358;45.642;13.758;2024-01-10T12:22:21;25.23;;;21.77;;
81894;SDS011;71358;45.642;13.758;2024-01-10T12:25:06;31.38;;;27.48;;
81894;SDS011;71358;45.642;13.758;2024-01-10T12:27:50;49.30;;;39.55;;
81894;SDS011;71358;45.642;13.758;2024-01-10T12:30:35;59.65;;;49.00;;
81894;SDS011;71358;45.642;13.758;2024-01-10T12:33:23;58.00;;;50.42;;
81894;SDS011;71358;45.642;13.758;2024-01-10T12:36:08;53.60;;;47.40;;
81894;SDS011;71358;45.642;13.758;2024-01-10T12:38:55;57.63;;;45.38;;
81894;SDS011;71358;45.642;13.758;2024-01-10T12:41:40;47.90;;;38.65;;
81894;SDS011;71358;45.642;13.758;2024-01-10T12:44:30;58.75;;;44.72;;
81894;SDS011;71358;45.642;13.758;2024-01-10T12:47:21;53.05;;;44.13;;
81894;SDS011;71358;45.642;13.758;2024-01-10T12:50:07;44.05;;;35.30;;
81894;SDS011;71358;45.642;13.758;2024-01-10T12:52:53;42.13;;;35.20;;
81894;SDS011;71358;45.642;13.758;2024-01-10T12:55:38;42.17;;;35.22;;
81894;SDS011;71358;45.642;13.758;2024-01-10T12:58:23;36.85;;;31.92;;
81894;SDS011;71358;45.642;13.758;2024-01-10T13:01:08;39.38;;;32.05;;
81894;SDS011;71358;45.642;13.758;2024-01-10T13:03:53;34.05;;;29.08;;
81894;SDS011;71358;45.642;13.758;2024-01-10T13:06:38;34.67;;;29.08;;
81894;SDS011;71358;45.642;13.758;2024-01-10T13:09:24;35.13;;;29.00;;
81894;SDS011;71358;45.642;13.758;2024-01-10T13:12:09;34.08;;;27.90;;
81894;SDS011;71358;45.642;13.758;2024-01-10T13:14:53;33.85;;;27.75;;
81894;SDS011;71358;45.642;13.758;2024-01-10T13:17:38;29.25;;;25.83;;
81894;SDS011;71358;45.642;13.758;2024-01-10T13:20:23;30.98;;;24.75;;
81894;SDS011;71358;45.642;13.758;2024-01-10T13:23:08;32.08;;;26.13;;
81894;SDS011;71358;45.642;13.758;2024-01-10T13:25:53;27.00;;;22.27;;
81894;SDS011;71358;45.642;13.758;2024-01-10T13:28:38;24.60;;;22.02;;
81894;SDS011;71358;45.642;13.758;2024-01-10T13:31:23;26.23;;;20.48;;
81894;SDS011;71358;45.642;13.758;2024-01-10T13:34:08;27.33;;;22.73;;
81894;SDS011;71358;45.642;13.758;2024-01-10T13:36:54;21.45;;;18.42;;
81894;SDS011;71358;45.642;13.758;2024-01-10T13:39:42;21.75;;;18.85;;
81894;SDS011;71358;45.642;13.758;2024-01-10T13:42:27;19.20;;;17.08;;
81894;SDS011;71358;45.642;13.758;2024-01-10T13:45:11;22.25;;;18.13;;
81894;SDS011;71358;45.642;13.758;2024-01-10T13:47:56;21.48;;;17.50;;
81894;SDS011;71358;45.642;13.758;2024-01-10T13:50:41;18.35;;;15.63;;
81894;SDS011;71358;45.642;13.758;2024-01-10T13:53:25;17.85;;;15.18;;
81894;SDS011;71358;45.642;13.758;2024-01-10T13:56:10;18.85;;;14.75;;
81894;SDS011;71358;45.642;13.758;2024-01-10T13:58:56;17.88;;;14.02;;
81894;SDS011;71358;45.642;13.758;2024-01-10T14:01:41;15.75;;;14.15;;
81894;SDS011;71358;45.642;13.758;2024-01-10T14:04:25;19.63;;;14.88;;
81894;SDS011;71358;45.642;13.758;2024-01-10T14:07:10;17.33;;;13.63;;
81894;SDS011;71358;45.642;13.758;2024-01-10T14:09:54;14.63;;;12.75;;
81894;SDS011;71358;45.642;13.758;2024-01-10T14:12:39;20.13;;;14.05;;
81894;SDS011;71358;45.642;13.758;2024-01-10T14:15:23;17.67;;;14.15;;
81894;SDS011;71358;45.642;13.758;2024-01-10T14:18:08;15.35;;;13.07;;
81894;SDS011;71358;45.642;13.758;2024-01-10T14:20:53;17.80;;;13.98;;
81894;SDS011;71358;45.642;13.758;2024-01-10T14:23:37;18.52;;;13.05;;
81894;SDS011;71358;45.642;13.758;2024-01-10T14:26:22;15.38;;;12.45;;
81894;SDS011;71358;45.642;13.758;2024-01-10T14:29:07;14.13;;;11.52;;
81894;SDS011;71358;45.642;13.758;2024-01-10T14:31:52;18.90;;;12.45;;
81894;SDS011;71358;45.642;13.758;2024-01-10T14:34:39;14.93;;;10.82;;
81894;SDS011;71358;45.642;13.758;2024-01-10T14:37:24;15.38;;;10.82;;
81894;SDS011;71358;45.642;13.758;2024-01-10T14:40:09;15.68;;;10.88;;
81894;SDS011;71358;45.642;13.758;2024-01-10T14:42:54;11.63;;;10.43;;
81894;SDS011;71358;45.642;13.758;2024-01-10T14:45:39;12.85;;;10.63;;
81894;SDS011;71358;45.642;13.758;2024-01-10T14:48:23;13.48;;;10.10;;
81894;SDS011;71358;45.642;13.758;2024-01-10T14:51:08;11.70;;;10.50;;
81894;SDS011;71358;45.642;13.758;2024-01-10T14:53:53;12.15;;;9.82;;
81894;SDS011;71358;45.642;13.758;2024-01-10T14:56:37;12.00;;;9.48;;
81894;SDS011;71358;45.642;13.758;2024-01-10T14:59:23;15.18;;;10.13;;
81894;SDS011;71358;45.642;13.758;2024-01-10T15:02:08;12.82;;;9.80;;
81894;SDS011;71358;45.642;13.758;2024-01-10T15:04:52;12.95;;;9.88;;
81894;SDS011;71358;45.642;13.758;2024-01-10T15:07:37;15.73;;;9.90;;
81894;SDS011;71358;45.642;13.758;2024-01-10T15:10:21;11.70;;;10.32;;
81894;SDS011;71358;45.642;13.758;2024-01-10T15:13:06;13.30;;;9.05;;
81894;SDS011;71358;45.642;13.758;2024-01-10T15:15:51;11.18;;;7.97;;
81894;SDS011;71358;45.642;13.758;2024-01-10T15:18:36;10.00;;;8.23;;
81894;SDS011;71358;45.642;13.758;2024-01-10T15:21:20;11.80;;;8.38;;
81894;SDS011;71358;45.642;13.758;2024-01-10T15:24:08;10.43;;;8.57;;
81894;SDS011;71358;45.642;13.758;2024-01-10T15:26:52;13.13;;;8.70;;
81894;SDS011;71358;45.642;13.758;2024-01-10T15:29:37;9.40;;;7.88;;
81894;SDS011;71358;45.642;13.758;2024-01-10T15:32:22;11.25;;;7.75;;
81894;SDS011;71358;45.642;13.758;2024-01-10T15:35:06;10.80;;;8.13;;
81894;SDS011;71358;45.642;13.758;2024-01-10T15:37:51;9.25;;;8.20;;
81894;SDS011;71358;45.642;13.758;2024-01-10T15:40:39;8.93;;;8.00;;
81894;SDS011;71358;45.642;13.758;2024-01-10T15:43:23;9.05;;;7.03;;
81894;SDS011;71358;45.642;13.758;2024-01-10T15:46:08;9.10;;;7.32;;
81894;SDS011;71358;45.642;13.758;2024-01-10T15:48:52;8.63;;;7.40;;
81894;SDS011;71358;45.642;13.758;2024-01-10T15:51:37;9.63;;;7.60;;
81894;SDS011;71358;45.642;13.758;2024-01-10T15:54:24;9.60;;;7.75;;
81894;SDS011;71358;45.642;13.758;2024-01-10T15:57:09;7.75;;;6.57;;
81894;SDS011;71358;45.642;13.758;2024-01-10T15:59:53;9.05;;;7.47;;
81894;SDS011;71358;45.642;13.758;2024-01-10T16:02:38;8.43;;;7.60;;
81894;SDS011;71358;45.642;13.758;2024-01-10T16:05:25;9.93;;;7.05;;
81894;SDS011;71358;45.642;13.758;2024-01-10T16:08:09;11.45;;;7.43;;
81894;SDS011;71358;45.642;13.758;2024-01-10T16:10:54;9.48;;;7.15;;
81894;SDS011;71358;45.642;13.758;2024-01-10T16:13:38;7.57;;;6.82;;
81894;SDS011;71358;45.642;13.758;2024-01-10T16:16:23;7.97;;;7.13;;